PST: 16:29 MST: 17:29 CST: 18:29 EST: 19:29 LDN: 23:29 UTC: 23:29
User Agent: CCBot/2.0 (http://commoncrawl.org/faq/)
IP Address: 54.147.237.64
Hostname: ec2-54-147-237-64.compute-1.amazonaws.com

METAR:
KBFI 252253Z VRB06KT 10SM BKN034 BKN043 OVC060 12/06 A3010 RMK AO2 SLP192 T01170056
KBFI 252153Z 19007KT 10SM SCT047 BKN055 BKN070 11/04 A3010 RMK AO2 SLP193 T01060044
KBFI 252053Z 23008KT 10SM FEW040 11/05 A3012 RMK AO2 SLP198 60000 T01060050 58003
KBFI 251953Z 18008KT 10SM SCT031 BKN042 BKN050 11/06 A3012 RMK AO2 RAB39E51 SLP199 P0000 T01110056

TAF:
KBFI 251725Z 2518/2618 18008KT P6SM VCSH SCT020 BKN050 TEMPO 2518/2520 BKN020
FM 252100 20008KT P6SM SCT040 BKN050
FM 260200 17005KT P6SM SCT050
FM 261000 13006KT P6SM SCT080 OVC140
FM 261700 14008KT P6SM -RA BKN050 OVC070

KBFI 251507Z 2515/2612 18008KT P6SM VCSH SCT030 BKN050
FM 252100 20008KT P6SM SCT040 BKN050
FM 260200 17005KT P6SM SCT050 BKN200
FM 261000 13006KT P6SM SCT080 BKN200

KBFI 251140Z 2512/2612 18011KT P6SM VCSH SCT025 BKN050 TEMPO 2512/2516 5SM SHRA BKN025 OVC050
FM 251800 20008KT P6SM VCSH SCT035 BKN050 TEMPO 2518/2522 -SHRA BKN035 OVC050
FM 260000 20005KT P6SM BKN070 BKN200
FM 260300 VRB03KT P6SM FEW070 BKN200

KBFI 250903Z 2509/2606 17010KT P6SM VCSH BKN035 BKN050 TEMPO 2509/2513 5SM SHRA OVC028
FM 251300 18007KT P6SM VCSH BKN028 BKN050
FM 251800 20007KT P6SM VCSH SCT035 BKN050 PROB30 2518/2524 -SHRA BKN035 OVC050
FM 260000 20004KT P6SM FEW040 BKN060

KBFI 250523Z 2506/2606 18010KT P6SM VCSH SCT028 BKN050
FM 250900 18010KT P6SM -SHRA BKN028 BKN050
FM 251300 18007KT P6SM VCSH BKN028 BKN050
FM 251800 20007KT P6SM VCSH SCT035 BKN050 PROB30 2518/2524 -SHRA BKN035 OVC050
FM 260000 20004KT P6SM FEW040 BKN060

KBFI 250302Z 2503/2524 19008KT P6SM VCSH SCT025 BKN050 TEMPO 2503/2506 -SHRA BKN025 OVC050
FM 250600 17008KT P6SM VCSH SCT040 BKN050
FM 251200 15006KT P6SM VCSH BKN035 BKN050
FM 251800 18010KT P6SM SCT040 BKN050

KBFI 250134Z 2502/2524 19008KT P6SM VCSH BKN045 OVC080 TEMPO 2502/2504 -SHRA
FM 250400 17008KT P6SM VCSH SCT040 BKN050
FM 251200 15006KT P6SM VCSH BKN035 BKN050
FM 251800 18010KT P6SM SCT040 BKN050

KBFI 242327Z 2500/2524 19010G18KT P6SM SCT040 BKN050 TEMPO 2500/2504 -SHRA BKN035 OVC050
FM 250400 17008KT P6SM VCSH SCT040 BKN050
FM 251200 15006KT P6SM VCSH BKN035 BKN050
FM 251800 18010KT P6SM SCT040 BKN050